»·PEaware :: N232VB KPDX-KTVL

N232VB :: KPDX-KTVL

FLIGHT INFORMATION

Flight Status: Arrived
Operator: Privately registered:
United States
More flights under this callsign
Pilot: Anonymous 41672 (41672)
Aircraft: BOEING 737-600
(B736)
More flights by this aircraft type
Origin: KPDX Portland Intl
United States
Destination: KTVL Lake Tahoe
United States
More flights between these airports :: More routes between these airports
Route: CASCD2 PAWLI LKV J5 FMG V113 HUYJO
File this flight plan on PilotEdge
Remarks:
Altitude:
(Current/Filed)
39,000ft
Speed:
(Current/Filed)
440kts
Departed: 19-Jan-23 03:00 PM
Arrived: 19-Jan-23 04:06 PM
Distance/Time
Traveled:
418nm/1:06
Distance/Time
To Go:
Arrived

Flight Plot

Page will automatically refresh every two minutes.

Flight plan parsing failed; only flown route is shown


Map Options




Map Legend


Flown Route
Filed Route
Departure Airport
Arrival Airport
Navaid (VOR, NDB)
Fix

Horizontal Profiles

Position Reports

Time Latitude Longitude Heading Altitude Ground
Speed
19-Jan-23 14:08 45.586969 -122.593211 39 38ft 0kts
19-Jan-23 14:09 45.586969 -122.593211 39 38ft 0kts
19-Jan-23 14:10 45.586969 -122.593211 39 38ft 0kts
19-Jan-23 14:11 45.586969 -122.593211 39 38ft 0kts
19-Jan-23 14:12 45.586969 -122.593211 39 38ft 0kts
19-Jan-23 14:13 45.586969 -122.593211 39 38ft 0kts
19-Jan-23 14:14 45.586969 -122.593211 39 38ft 0kts
19-Jan-23 14:15 45.586969 -122.593211 39 38ft 0kts
19-Jan-23 14:16 45.586969 -122.593211 39 38ft 0kts
19-Jan-23 14:17 45.586969 -122.593211 39 38ft 0kts
19-Jan-23 14:18 45.586969 -122.593211 39 38ft 0kts
19-Jan-23 14:19 45.586969 -122.593211 39 38ft 0kts
19-Jan-23 14:20 45.586969 -122.593211 39 38ft 0kts
19-Jan-23 14:21 45.586969 -122.593211 39 29ft 0kts
19-Jan-23 14:22 45.586969 -122.593211 39 29ft 0kts
19-Jan-23 14:23 45.586969 -122.593211 39 29ft 0kts
19-Jan-23 14:24 45.586969 -122.593211 39 29ft 0kts
19-Jan-23 14:25 45.586969 -122.593211 39 29ft 0kts
19-Jan-23 14:26 45.586969 -122.593211 39 29ft 0kts
19-Jan-23 14:27 45.586969 -122.593211 39 29ft 0kts
19-Jan-23 14:28 45.586969 -122.593211 39 29ft 0kts
19-Jan-23 14:29 45.586969 -122.593211 39 29ft 0kts
19-Jan-23 14:30 45.586969 -122.593211 39 29ft 0kts
19-Jan-23 14:31 45.586969 -122.593211 39 29ft 0kts
19-Jan-23 14:32 45.586969 -122.593211 39 29ft 0kts
19-Jan-23 14:33 45.586969 -122.593211 39 29ft 0kts
19-Jan-23 14:34 45.586969 -122.593211 39 29ft 0kts
19-Jan-23 14:35 45.586969 -122.593211 39 38ft 0kts
19-Jan-23 14:36 45.586969 -122.593211 39 38ft 0kts
19-Jan-23 14:37 45.586969 -122.593211 39 38ft 0kts
19-Jan-23 14:38 45.586969 -122.593211 39 38ft 0kts
19-Jan-23 14:39 45.586969 -122.593211 39 38ft 0kts
19-Jan-23 14:40 45.586725 -122.593586 310 38ft 0kts
19-Jan-23 14:41 45.586725 -122.593586 310 38ft 0kts
19-Jan-23 14:42 45.586725 -122.593586 310 38ft 0kts
19-Jan-23 14:43 45.586725 -122.593586 310 38ft 0kts
19-Jan-23 14:44 45.586725 -122.593586 310 38ft 0kts
19-Jan-23 14:45 45.586725 -122.593586 310 38ft 0kts
19-Jan-23 14:46 45.586725 -122.593586 310 38ft 0kts
19-Jan-23 14:48 45.586725 -122.593586 310 38ft 0kts
19-Jan-23 14:49 45.586725 -122.593586 310 38ft 0kts
19-Jan-23 14:50 45.586725 -122.593586 310 38ft 0kts
19-Jan-23 14:51 45.587732 -122.597027 299 36ft 23kts
19-Jan-23 14:52 45.590647 -122.601208 29 37ft 0kts
19-Jan-23 14:53 45.592944 -122.597774 28 37ft 0kts
19-Jan-23 14:54 45.594466 -122.597493 43 36ft 8kts
19-Jan-23 14:55 45.594487 -122.597463 43 38ft 0kts
19-Jan-23 14:56 45.594487 -122.597463 43 38ft 0kts
19-Jan-23 14:57 45.594487 -122.597463 43 38ft 0kts
19-Jan-23 14:58 45.594970 -122.596071 111 38ft 10kts
19-Jan-23 14:59 45.579500 -122.557902 106 2633ft 139kts
19-Jan-23 15:00 45.568711 -122.478307 103 4572ft 252kts
19-Jan-23 15:01 45.549417 -122.371353 105 8453ft 289kts
19-Jan-23 15:02 45.498605 -122.283523 153 11972ft 320kts
19-Jan-23 15:03 45.412816 -122.253491 172 14972ft 320kts
19-Jan-23 15:04 45.324508 -122.228709 173 18149ft 323kts
19-Jan-23 15:05 45.235256 -122.202769 173 21630ft 329kts
19-Jan-23 15:06 45.144076 -122.176262 173 24673ft 342kts
19-Jan-23 15:07 45.047651 -122.144358 162 26740ft 376kts
19-Jan-23 15:08 44.949852 -122.078357 158 28794ft 400kts
19-Jan-23 15:09 44.846615 -122.008561 158 30679ft 420kts
19-Jan-23 15:10 44.738894 -121.936744 157 32171ft 436kts
19-Jan-23 15:11 44.627111 -121.862625 157 33436ft 452kts
19-Jan-23 15:12 44.512973 -121.787254 157 34883ft 456kts
19-Jan-23 15:13 44.398018 -121.711688 157 36039ft 460kts
19-Jan-23 15:14 44.281626 -121.635526 158 37127ft 464kts
19-Jan-23 15:15 44.164196 -121.559017 158 38150ft 467kts
19-Jan-23 15:16 44.045641 -121.482130 158 38946ft 474kts
19-Jan-23 15:17 43.925421 -121.404488 158 39344ft 477kts
19-Jan-23 15:18 43.805918 -121.327634 158 39354ft 471kts
19-Jan-23 15:19 43.687060 -121.251570 158 39372ft 471kts
19-Jan-23 15:20 43.568145 -121.175796 157 39367ft 473kts
19-Jan-23 15:21 43.447490 -121.099248 157 39368ft 482kts
19-Jan-23 15:22 43.324943 -121.021797 157 39362ft 485kts
19-Jan-23 15:23 43.202541 -120.944749 157 39356ft 484kts
19-Jan-23 15:24 43.080319 -120.868717 157 39365ft 481kts
19-Jan-23 15:25 42.958304 -120.793031 157 39353ft 480kts
19-Jan-23 15:26 42.837065 -120.718128 157 39376ft 478kts
19-Jan-23 15:27 42.715862 -120.643574 157 39375ft 478kts
19-Jan-23 15:28 42.593477 -120.568592 154 39348ft 493kts
19-Jan-23 15:29 42.463878 -120.497001 166 39351ft 511kts
19-Jan-23 15:30 42.326496 -120.457046 167 39293ft 500kts
19-Jan-23 15:31 42.190462 -120.416802 167 39272ft 500kts
19-Jan-23 15:32 42.054310 -120.376250 167 39279ft 503kts
19-Jan-23 15:33 41.917352 -120.335680 167 39327ft 505kts
19-Jan-23 15:34 41.780108 -120.295207 167 39362ft 507kts
19-Jan-23 15:35 41.641924 -120.254631 167 39329ft 506kts
19-Jan-23 15:36 41.505324 -120.214686 167 39314ft 501kts
19-Jan-23 15:37 41.369562 -120.175145 167 39324ft 498kts
19-Jan-23 15:38 41.233943 -120.135787 168 39349ft 497kts
19-Jan-23 15:39 41.098840 -120.096905 168 39334ft 499kts
19-Jan-23 15:40 40.961824 -120.057428 168 38187ft 511kts
19-Jan-23 15:41 40.823479 -120.017792 168 35518ft 509kts
19-Jan-23 15:42 40.685672 -119.978715 167 33310ft 501kts
19-Jan-23 15:43 40.551498 -119.940686 165 31417ft 489kts
19-Jan-23 15:44 40.418726 -119.903152 163 29495ft 485kts
19-Jan-23 15:45 40.289088 -119.866655 164 27678ft 471kts
19-Jan-23 15:46 40.162418 -119.831125 165 25945ft 460kts
19-Jan-23 15:47 40.038120 -119.796376 166 24254ft 456kts
19-Jan-23 15:48 39.916664 -119.762554 167 22473ft 443kts
19-Jan-23 15:49 39.796464 -119.737485 187 20631ft 432kts
19-Jan-23 15:50 39.679709 -119.761696 194 18932ft 419kts
19-Jan-23 15:51 39.568225 -119.784572 192 16683ft 391kts
19-Jan-23 15:52 39.465131 -119.805464 191 14581ft 360kts
19-Jan-23 15:53 39.369356 -119.824798 189 12255ft 338kts
19-Jan-23 15:54 39.280458 -119.842703 189 11179ft 304kts
19-Jan-23 15:55 39.218710 -119.898557 237 10997ft 273kts
19-Jan-23 15:56 39.169366 -119.972486 206 10986ft 279kts
19-Jan-23 15:57 39.093767 -119.971034 173 9873ft 260kts
19-Jan-23 15:58 39.027423 -119.969611 187 8727ft 220kts
19-Jan-23 15:59 38.969877 -119.980812 186 7520ft 198kts
19-Jan-23 16:00 38.922432 -119.994513 213 7336ft 158kts
19-Jan-23 16:01 38.893323 -120.036459 232 7543ft 158kts
19-Jan-23 16:02 38.857754 -120.042111 106 7622ft 141kts
19-Jan-23 16:03 38.864708 -120.003338 5 6792ft 131kts
19-Jan-23 16:04 38.896608 -119.994570 12 6266ft 41kts
19-Jan-23 16:05 38.897155 -119.995428 190 6267ft 13kts
19-Jan-23 16:06 38.895088 -119.996770 279 6268ft 10kts
19-Jan-23 16:07 38.895113 -119.997255 282 6268ft 0kts

Navigation Log

Ident Type
Flight plan parsing failed, navigation log unavailable